createdAt,value
2017-07-03T00:01:56.996Z,7.55
2017-07-03T00:04:23.659Z,5.65
2017-07-03T00:06:50.320Z,7.50
2017-07-03T00:09:16.984Z,5.10
2017-07-03T00:11:43.652Z,6.05
2017-07-03T00:14:10.335Z,7.20
2017-07-03T00:16:37.007Z,6.12
2017-07-03T00:19:03.697Z,7.57
2017-07-03T00:21:30.359Z,4.80
2017-07-03T00:23:57.043Z,5.30
2017-07-03T00:26:23.707Z,3.50
2017-07-03T00:28:50.372Z,4.40
2017-07-03T00:31:17.036Z,6.75
2017-07-03T00:33:43.710Z,8.18
2017-07-03T00:36:10.371Z,11.40
2017-07-03T00:38:37.039Z,4.75
2017-07-03T00:41:03.702Z,3.97
2017-07-03T00:43:30.364Z,5.95
2017-07-03T00:45:57.036Z,6.93
2017-07-03T00:48:23.710Z,7.87
2017-07-03T00:50:50.371Z,6.50
2017-07-03T00:53:17.032Z,5.20
2017-07-03T00:55:43.696Z,6.87
2017-07-03T00:58:10.361Z,5.37
2017-07-03T01:00:37.032Z,6.57
2017-07-03T01:03:03.699Z,5.22
2017-07-03T01:05:30.359Z,6.50
2017-07-03T01:07:57.028Z,6.55
2017-07-03T01:10:23.699Z,6.35
2017-07-03T01:12:50.401Z,5.62
2017-07-03T01:15:17.059Z,8.88
2017-07-03T01:17:43.967Z,5.75
2017-07-03T01:20:10.629Z,8.27
2017-07-03T01:22:37.287Z,6.97
2017-07-03T01:25:03.947Z,7.10
2017-07-03T01:27:30.604Z,5.53
2017-07-03T01:29:57.300Z,5.68
2017-07-03T01:32:23.963Z,5.18
2017-07-03T01:34:50.651Z,6.50
2017-07-03T01:37:17.315Z,4.95
2017-07-03T01:39:44.015Z,16.37
2017-07-03T01:42:10.679Z,6.53
2017-07-03T01:44:37.340Z,5.07
2017-07-03T01:47:04.003Z,9.77
2017-07-03T01:49:30.680Z,11.75
2017-07-03T01:51:57.365Z,7.45
2017-07-03T01:54:24.024Z,7.68
2017-07-03T01:56:50.839Z,8.05
2017-07-03T01:59:17.503Z,5.60
2017-07-03T02:01:44.199Z,6.70
2017-07-03T02:04:10.864Z,4.32
2017-07-03T02:06:37.559Z,7.57
2017-07-03T02:09:04.220Z,8.20
2017-07-03T02:11:30.909Z,6.65
2017-07-03T02:13:57.575Z,7.53
2017-07-03T02:16:24.260Z,8.40
2017-07-03T02:18:50.930Z,6.00
2017-07-03T02:21:17.621Z,8.00
2017-07-03T02:23:44.288Z,5.20
2017-07-03T02:26:10.984Z,4.72
2017-07-03T02:28:37.664Z,8.60
2017-07-03T02:31:04.351Z,9.45
2017-07-03T02:33:31.012Z,6.47
2017-07-03T02:35:57.696Z,6.62
2017-07-03T02:38:24.364Z,5.10
2017-07-03T02:40:51.052Z,11.68
2017-07-03T02:43:17.712Z,5.05
2017-07-03T02:45:44.399Z,7.70
2017-07-03T02:48:11.063Z,6.40
2017-07-03T02:50:37.760Z,10.88
2017-07-03T02:53:04.424Z,6.97
2017-07-03T02:55:36.979Z,7.62
2017-07-03T02:58:03.644Z,8.10
2017-07-03T03:00:30.313Z,4.97
2017-07-03T03:02:56.981Z,6.62
2017-07-03T03:05:23.640Z,9.55
2017-07-03T03:07:50.311Z,11.93
2017-07-03T03:10:16.973Z,8.63
2017-07-03T03:12:43.640Z,5.18
2017-07-03T03:15:10.308Z,8.05
2017-07-03T03:17:36.976Z,8.68
2017-07-03T03:20:03.636Z,6.18
2017-07-03T03:22:30.320Z,6.68
2017-07-03T03:24:56.988Z,13.60
2017-07-03T03:27:23.676Z,13.95
2017-07-03T03:29:50.342Z,5.75
2017-07-03T03:32:17.027Z,9.82
2017-07-03T03:34:43.693Z,5.57
2017-07-03T03:37:10.387Z,7.22
2017-07-03T03:39:37.055Z,7.97
2017-07-03T03:42:03.753Z,6.97
2017-07-03T03:44:30.423Z,8.15
2017-07-03T03:46:57.116Z,10.63
2017-07-03T03:49:23.786Z,6.53
2017-07-03T03:51:50.474Z,5.55
2017-07-03T03:54:17.141Z,6.97
2017-07-03T03:56:43.828Z,9.77
2017-07-03T03:59:10.499Z,6.28
2017-07-03T04:01:37.183Z,7.22
2017-07-03T04:04:03.843Z,8.45
2017-07-03T04:06:30.529Z,6.00
2017-07-03T04:08:57.193Z,7.12
2017-07-03T04:11:23.892Z,10.35
2017-07-03T04:13:50.559Z,6.95
2017-07-03T04:16:17.224Z,9.43
2017-07-03T04:18:43.896Z,7.05
2017-07-03T04:21:10.570Z,7.45
2017-07-03T04:23:37.231Z,7.50
2017-07-03T04:26:03.893Z,7.20
2017-07-03T04:28:30.572Z,11.00
2017-07-03T04:30:57.240Z,11.60
2017-07-03T04:33:23.912Z,10.63
2017-07-03T04:35:50.580Z,6.72
2017-07-03T04:38:17.244Z,8.07
2017-07-03T04:40:43.907Z,8.95
2017-07-03T04:43:10.568Z,9.60
2017-07-03T04:45:37.236Z,7.45
2017-07-03T04:48:03.900Z,11.85
2017-07-03T04:50:30.571Z,13.50
2017-07-03T04:52:57.258Z,8.00
2017-07-03T04:55:24.151Z,11.12
2017-07-03T04:57:50.843Z,7.78
2017-07-03T05:00:17.514Z,6.53
2017-07-03T05:02:44.208Z,8.55
2017-07-03T05:05:10.872Z,9.70
2017-07-03T05:07:37.559Z,7.15
2017-07-03T05:10:04.225Z,6.10
2017-07-03T05:12:30.919Z,8.75
2017-07-03T05:14:57.593Z,9.38
2017-07-03T05:17:24.293Z,7.07
2017-07-03T05:19:50.968Z,15.93
2017-07-03T05:22:17.664Z,8.70
2017-07-03T05:24:44.339Z,9.75
2017-07-03T05:27:11.011Z,24.65
2017-07-03T05:29:37.677Z,6.93
2017-07-03T05:32:04.422Z,11.10
2017-07-03T05:34:31.084Z,9.10
2017-07-03T05:36:57.751Z,9.75
2017-07-03T05:39:24.415Z,7.28
2017-07-03T05:41:51.073Z,7.10
2017-07-03T05:44:23.531Z,6.80
2017-07-03T05:46:50.208Z,8.87
2017-07-03T05:49:16.877Z,5.93
2017-07-03T05:51:43.540Z,5.23
2017-07-03T05:54:10.229Z,7.10
2017-07-03T05:56:36.892Z,7.23
2017-07-03T05:59:03.552Z,6.80
2017-07-03T06:01:30.226Z,6.30
2017-07-03T06:03:56.893Z,7.40
2017-07-03T06:06:23.564Z,6.30
2017-07-03T06:08:50.224Z,9.00
2017-07-03T06:11:16.888Z,6.30
2017-07-03T06:13:43.561Z,5.93
2017-07-03T06:16:10.227Z,5.20
2017-07-03T06:18:36.900Z,6.03
2017-07-03T06:21:04.935Z,5.23
2017-07-03T06:23:31.803Z,9.70
2017-07-03T06:25:58.472Z,4.93
2017-07-03T06:28:25.144Z,5.23
2017-07-03T06:30:51.828Z,8.93
2017-07-03T06:33:18.502Z,7.80
2017-07-03T06:35:45.168Z,5.00
2017-07-03T06:38:11.863Z,6.73
2017-07-03T06:40:38.534Z,5.83
2017-07-03T06:43:05.192Z,6.63
2017-07-03T06:45:31.857Z,7.10
2017-07-03T06:47:58.533Z,6.73
2017-07-03T06:50:25.196Z,5.00
2017-07-03T06:52:51.860Z,6.70
2017-07-03T06:55:18.543Z,6.03
2017-07-03T06:57:45.200Z,4.83
2017-07-03T07:00:11.892Z,7.23
2017-07-03T07:02:38.564Z,6.03
2017-07-03T07:05:05.267Z,5.37
2017-07-03T07:07:31.949Z,5.20
2017-07-03T07:09:58.631Z,4.40
2017-07-03T07:12:25.304Z,4.20
2017-07-03T07:14:51.992Z,5.43
2017-07-03T07:17:18.651Z,6.10
2017-07-03T07:19:45.335Z,4.47
2017-07-03T07:22:12.003Z,3.97
2017-07-03T07:24:38.692Z,7.83
2017-07-03T07:27:05.357Z,5.00
2017-07-03T07:29:32.043Z,4.43
2017-07-03T07:31:58.708Z,3.87
2017-07-03T07:34:25.396Z,7.30
2017-07-03T07:36:52.055Z,5.77
2017-07-03T07:39:18.760Z,4.30
2017-07-03T07:41:45.423Z,7.57
2017-07-03T07:44:12.104Z,6.90
2017-07-03T07:46:38.764Z,4.30
2017-07-03T07:49:05.430Z,6.57
2017-07-03T07:51:32.536Z,5.10
2017-07-03T07:53:59.195Z,6.00
2017-07-03T07:56:25.851Z,4.90
2017-07-03T07:58:52.519Z,5.93
2017-07-03T08:01:19.198Z,5.97
2017-07-03T08:03:45.860Z,4.37
2017-07-03T08:06:12.528Z,5.40
2017-07-03T08:08:39.201Z,6.40
2017-07-03T08:11:05.860Z,8.00
2017-07-03T08:13:32.535Z,5.90
2017-07-03T08:15:59.209Z,7.23
2017-07-03T08:18:25.873Z,3.90
2017-07-03T08:20:52.565Z,3.80
2017-07-03T08:23:19.223Z,7.67
2017-07-03T08:25:45.911Z,8.33
2017-07-03T08:28:12.599Z,4.20
2017-07-03T08:30:39.284Z,3.90
2017-07-03T08:33:05.942Z,4.80
2017-07-03T08:35:32.624Z,8.30
2017-07-03T08:37:59.284Z,5.60
2017-07-03T08:40:25.976Z,3.67
2017-07-03T08:42:52.644Z,3.70
2017-07-03T08:45:19.340Z,7.57
2017-07-03T08:47:46.000Z,5.97
2017-07-03T08:50:12.693Z,4.67
2017-07-03T08:52:39.352Z,4.00
2017-07-03T08:55:06.035Z,5.70
2017-07-03T08:57:32.691Z,3.90
2017-07-03T08:59:59.388Z,3.53
2017-07-03T09:02:26.055Z,6.13
2017-07-03T09:04:52.729Z,3.80
2017-07-03T09:07:19.394Z,3.53
2017-07-03T09:09:46.063Z,3.77
2017-07-03T09:12:12.728Z,3.00
2017-07-03T09:14:39.388Z,3.93
2017-07-03T09:17:06.049Z,3.80
2017-07-03T09:19:32.716Z,3.07
2017-07-03T09:21:59.376Z,3.67
2017-07-03T09:24:26.035Z,5.27
2017-07-03T09:26:52.699Z,4.00
2017-07-03T09:29:19.359Z,6.60
2017-07-03T09:31:46.019Z,4.90
2017-07-03T09:34:12.685Z,4.40
2017-07-03T09:36:39.347Z,3.60
2017-07-03T09:39:06.012Z,3.60
2017-07-03T09:41:32.671Z,6.50
2017-07-03T09:43:59.341Z,3.27
2017-07-03T09:46:26.008Z,6.73
2017-07-03T09:48:52.671Z,4.60
2017-07-03T09:51:19.360Z,5.47
2017-07-03T09:53:46.021Z,3.43
2017-07-03T09:56:12.711Z,2.80
2017-07-03T09:58:39.372Z,3.00
2017-07-03T10:01:06.062Z,5.13
2017-07-03T10:03:32.729Z,3.23
2017-07-03T10:05:59.425Z,3.23
2017-07-03T10:08:26.096Z,3.80
2017-07-03T10:10:52.779Z,4.23
2017-07-03T10:13:19.439Z,3.93
2017-07-03T10:15:46.101Z,2.80
2017-07-03T10:18:12.759Z,3.10
2017-07-03T10:20:39.417Z,2.50
2017-07-03T10:23:06.084Z,4.60
2017-07-03T10:25:32.750Z,3.93
2017-07-03T10:27:59.407Z,3.70
2017-07-03T10:30:26.072Z,3.00
2017-07-03T10:32:52.727Z,2.90
2017-07-03T10:35:19.387Z,3.10
2017-07-03T10:37:46.052Z,3.20
2017-07-03T10:40:12.712Z,3.10
2017-07-03T10:42:39.371Z,3.20
2017-07-03T10:45:06.036Z,2.90
2017-07-03T10:47:32.700Z,5.30
2017-07-03T10:49:59.367Z,3.33
2017-07-03T10:52:26.027Z,3.60
2017-07-03T10:54:52.693Z,3.30
2017-07-03T10:57:19.352Z,3.87
2017-07-03T10:59:46.011Z,2.57
2017-07-03T11:02:12.676Z,5.27
2017-07-03T11:04:39.336Z,2.77
2017-07-03T11:07:05.995Z,3.20
2017-07-03T11:09:32.657Z,5.20
2017-07-03T11:11:59.319Z,4.00
2017-07-03T11:14:25.991Z,2.97
2017-07-03T11:16:52.651Z,5.20
2017-07-03T11:19:19.314Z,3.57
2017-07-03T11:21:46.000Z,4.10
2017-07-03T11:24:12.668Z,3.10
2017-07-03T11:26:39.355Z,3.93
2017-07-03T11:29:06.011Z,5.20
2017-07-03T11:31:32.675Z,3.60
2017-07-03T11:33:59.339Z,3.40
2017-07-03T11:36:25.996Z,3.70
2017-07-03T11:38:52.660Z,4.40
2017-07-03T11:41:19.328Z,4.57
2017-07-03T11:43:45.983Z,3.40
2017-07-03T11:46:12.753Z,5.70
2017-07-03T11:48:39.411Z,3.10
2017-07-03T11:51:06.076Z,3.30
2017-07-03T11:53:32.760Z,3.77
2017-07-03T11:55:59.425Z,3.40
2017-07-03T11:58:26.111Z,2.80
2017-07-03T12:00:52.771Z,7.53
2017-07-03T12:03:19.455Z,4.27
2017-07-03T12:05:46.116Z,3.83
2017-07-03T12:08:12.802Z,3.43
2017-07-03T12:10:39.459Z,3.30
2017-07-03T12:13:06.144Z,3.10
2017-07-03T12:15:32.808Z,3.00
2017-07-03T12:17:59.496Z,3.87
2017-07-03T12:20:26.171Z,3.70
2017-07-03T12:22:52.854Z,3.27
2017-07-03T12:25:19.515Z,4.57
2017-07-03T12:27:46.199Z,6.73
2017-07-03T12:30:12.859Z,4.17
2017-07-03T12:32:39.540Z,5.00
2017-07-03T12:35:06.207Z,3.20
2017-07-03T12:37:32.889Z,3.33
2017-07-03T12:39:59.549Z,3.57
2017-07-03T12:42:26.207Z,3.83
2017-07-03T12:44:52.867Z,4.00
2017-07-03T12:47:19.528Z,3.50
2017-07-03T12:49:46.196Z,5.27
2017-07-03T12:52:12.861Z,4.30
2017-07-03T12:54:39.522Z,3.50
2017-07-03T12:57:06.189Z,4.20
2017-07-03T12:59:32.852Z,3.47
2017-07-03T13:01:59.515Z,3.57
2017-07-03T13:04:26.180Z,5.20
2017-07-03T13:06:52.840Z,6.20
2017-07-03T13:09:19.505Z,4.60
2017-07-03T13:11:46.167Z,3.30
2017-07-03T13:14:12.828Z,3.03
2017-07-03T13:16:39.488Z,5.37
2017-07-03T13:19:06.148Z,4.97
2017-07-03T13:21:32.809Z,5.23
2017-07-03T13:23:59.469Z,3.40
2017-07-03T13:26:26.129Z,3.00
2017-07-03T13:28:52.811Z,3.87
2017-07-03T13:31:19.472Z,3.27
2017-07-03T13:33:46.160Z,5.57
2017-07-03T13:36:12.816Z,4.00
2017-07-03T13:38:39.500Z,6.53
2017-07-03T13:41:06.155Z,5.63
2017-07-03T13:43:32.844Z,4.60
2017-07-03T13:45:59.504Z,4.40
2017-07-03T13:48:26.192Z,3.67
2017-07-03T13:50:52.856Z,4.10
2017-07-03T13:53:19.536Z,3.73
2017-07-03T13:55:46.200Z,4.83
2017-07-03T13:58:12.861Z,4.30
2017-07-03T14:00:39.523Z,4.30
2017-07-03T14:03:06.212Z,3.60
2017-07-03T14:05:32.864Z,4.93
2017-07-03T14:07:59.533Z,8.53
2017-07-03T14:10:26.196Z,3.17
2017-07-03T14:12:52.851Z,3.33
2017-07-03T14:15:19.512Z,3.30
2017-07-03T14:17:46.174Z,3.60
2017-07-03T14:20:12.841Z,3.67
2017-07-03T14:22:39.517Z,4.17
2017-07-03T14:25:06.175Z,3.50
2017-07-03T14:27:32.836Z,3.77
2017-07-03T14:29:59.495Z,3.90
2017-07-03T14:32:26.158Z,6.60
2017-07-03T14:34:52.825Z,4.93
2017-07-03T14:37:19.484Z,3.70
2017-07-03T14:39:46.148Z,5.20
2017-07-03T14:42:12.816Z,4.93
2017-07-03T14:44:39.480Z,3.43
2017-07-03T14:47:06.960Z,3.57
2017-07-03T14:49:33.621Z,3.40
2017-07-03T14:52:00.280Z,5.80
2017-07-03T14:54:26.940Z,5.60
2017-07-03T14:56:53.599Z,4.17
2017-07-03T14:59:20.284Z,7.60
2017-07-03T15:01:47.055Z,3.67
2017-07-03T15:04:13.741Z,3.20
2017-07-03T15:06:40.405Z,5.50
2017-07-03T15:09:07.065Z,4.53
2017-07-03T15:11:33.728Z,3.67
2017-07-03T15:14:00.384Z,3.80
2017-07-03T15:16:27.048Z,4.00
2017-07-03T15:18:53.705Z,5.83
2017-07-03T15:21:20.368Z,4.80
2017-07-03T15:23:47.040Z,4.50
2017-07-03T15:26:13.700Z,6.50
2017-07-03T15:28:40.356Z,3.83
2017-07-03T15:31:07.016Z,9.17
2017-07-03T15:33:33.684Z,4.90
2017-07-03T15:36:00.344Z,5.33
2017-07-03T15:38:27.007Z,6.00
2017-07-03T15:40:53.667Z,4.47
2017-07-03T15:43:20.332Z,3.77
2017-07-03T15:45:47.019Z,5.60
2017-07-03T15:48:13.680Z,4.37
2017-07-03T15:50:40.360Z,5.10
2017-07-03T15:53:07.024Z,4.33
2017-07-03T15:55:33.708Z,3.70
2017-07-03T15:58:00.365Z,7.00
2017-07-03T16:00:27.048Z,7.80
2017-07-03T16:02:53.703Z,4.03
2017-07-03T16:05:20.386Z,3.70
2017-07-03T16:07:47.052Z,4.43
2017-07-03T16:10:13.736Z,6.30
2017-07-03T16:12:40.409Z,9.37
2017-07-03T16:15:07.097Z,5.63
2017-07-03T16:17:33.792Z,4.10
2017-07-03T16:20:00.440Z,4.97
2017-07-03T16:22:27.095Z,5.33
2017-07-03T16:24:53.754Z,6.47
2017-07-03T16:27:20.416Z,4.80
2017-07-03T16:29:47.086Z,5.83
2017-07-03T16:32:13.772Z,5.03
2017-07-03T16:34:40.431Z,6.93
2017-07-03T16:37:07.111Z,5.77
2017-07-03T16:39:33.768Z,4.03
2017-07-03T16:42:00.452Z,4.27
2017-07-03T16:44:27.109Z,3.60
2017-07-03T16:46:53.792Z,4.87
2017-07-03T16:49:20.456Z,4.93
2017-07-03T16:51:47.246Z,4.20
2017-07-03T16:54:13.904Z,7.13
2017-07-03T16:56:40.602Z,6.83
2017-07-03T16:59:07.267Z,3.77
2017-07-03T17:01:33.955Z,7.13
2017-07-03T17:04:00.616Z,5.60
2017-07-03T17:06:27.295Z,4.20
2017-07-03T17:08:53.956Z,8.40
2017-07-03T17:11:20.639Z,3.50
2017-07-03T17:13:47.301Z,4.57
2017-07-03T17:16:13.996Z,3.67
2017-07-03T17:18:40.664Z,4.13
2017-07-03T17:21:07.355Z,3.43
2017-07-03T17:23:34.020Z,4.10
2017-07-03T17:26:00.707Z,5.83
2017-07-03T17:28:27.364Z,6.20
2017-07-03T17:30:54.031Z,3.47
2017-07-03T17:33:20.691Z,5.30
2017-07-03T17:35:47.376Z,5.30
2017-07-03T17:38:14.031Z,5.73
2017-07-03T17:40:40.695Z,4.43
2017-07-03T17:43:07.352Z,3.77
2017-07-03T17:45:34.007Z,3.60
2017-07-03T17:48:00.668Z,3.70
2017-07-03T17:50:27.328Z,3.50
2017-07-03T17:52:54.076Z,3.37
2017-07-03T17:55:20.739Z,5.00
2017-07-03T17:57:47.412Z,5.27
2017-07-03T18:00:14.071Z,3.50
2017-07-03T18:02:40.735Z,4.30
2017-07-03T18:05:07.391Z,4.13
2017-07-03T18:07:34.055Z,4.43
2017-07-03T18:10:00.740Z,4.25
2017-07-03T18:12:27.431Z,4.20
2017-07-03T18:14:54.088Z,6.53
2017-07-03T18:17:20.773Z,5.07
2017-07-03T18:19:47.456Z,5.10
2017-07-03T18:22:14.153Z,5.03
2017-07-03T18:24:40.828Z,6.78
2017-07-03T18:27:07.521Z,4.80
2017-07-03T18:29:34.192Z,6.18
2017-07-03T18:32:00.891Z,4.37
2017-07-03T18:34:27.557Z,5.50
2017-07-03T18:36:54.256Z,5.25
2017-07-03T18:39:20.923Z,4.75
2017-07-03T18:41:47.821Z,6.97
2017-07-03T18:44:14.488Z,4.95
2017-07-03T18:46:41.164Z,6.05
2017-07-03T18:49:07.836Z,5.95
2017-07-03T18:51:34.522Z,5.20
2017-07-03T18:54:01.192Z,5.80
2017-07-03T18:56:27.860Z,5.32
2017-07-03T18:58:54.527Z,8.88
2017-07-03T19:01:21.195Z,5.85
2017-07-03T19:03:47.864Z,5.53
2017-07-03T19:06:14.538Z,6.18
2017-07-03T19:08:41.205Z,6.40
2017-07-03T19:11:07.876Z,8.35
2017-07-03T19:13:34.536Z,7.25
2017-07-03T19:59:41.614Z,10.55
2017-07-03T20:02:08.288Z,18.30
2017-07-03T20:04:34.979Z,12.82
2017-07-03T20:07:01.647Z,17.65
2017-07-03T20:09:28.344Z,17.33
2017-07-03T20:11:55.011Z,18.50
2017-07-03T20:14:21.759Z,26.85
2017-07-03T20:16:48.440Z,22.40
2017-07-03T20:19:15.141Z,23.85
2017-07-03T20:21:41.811Z,26.00
2017-07-03T20:24:08.504Z,28.38
2017-07-03T20:26:35.177Z,25.15
2017-07-03T20:29:01.876Z,28.92
2017-07-03T20:31:28.544Z,28.73
2017-07-03T20:33:55.242Z,26.55
2017-07-03T20:36:21.916Z,23.62
2017-07-03T20:38:48.620Z,22.02
2017-07-03T20:41:15.295Z,23.27
2017-07-03T20:43:41.997Z,24.35
2017-07-03T20:46:08.669Z,22.37
2017-07-03T20:48:35.374Z,18.85
2017-07-03T20:51:02.046Z,20.27
2017-07-03T20:53:28.735Z,19.12
2017-07-03T20:55:55.412Z,20.40
2017-07-03T20:58:22.081Z,19.35
2017-07-03T21:00:48.753Z,18.75
2017-07-03T21:03:15.434Z,18.80
2017-07-03T21:05:42.104Z,17.00
2017-07-03T21:08:08.788Z,20.73
2017-07-03T21:10:35.459Z,18.95
2017-07-03T21:13:02.129Z,20.35
2017-07-03T21:15:28.800Z,18.80
2017-07-03T21:17:55.474Z,20.45
2017-07-03T21:20:22.147Z,19.92
2017-07-03T21:22:48.815Z,19.30
2017-07-03T21:25:15.508Z,20.10
2017-07-03T21:27:42.189Z,19.17
2017-07-03T21:30:08.883Z,23.02
2017-07-03T21:32:35.559Z,20.02
2017-07-03T21:35:02.260Z,20.83
2017-07-03T21:37:28.932Z,18.65
2017-07-03T21:39:55.623Z,17.75
2017-07-03T21:42:22.290Z,21.90
2017-07-03T21:44:48.987Z,20.77
2017-07-03T21:47:15.655Z,14.93
2017-07-03T21:49:42.350Z,20.42
2017-07-03T21:52:09.019Z,17.15
2017-07-03T21:54:35.712Z,18.67
2017-07-03T21:57:02.376Z,18.75
2017-07-03T21:59:29.076Z,15.00
2017-07-03T22:01:55.748Z,18.52
2017-07-03T22:04:22.447Z,21.37
2017-07-03T22:06:49.119Z,24.15
2017-07-03T22:09:15.816Z,18.35
2017-07-03T22:11:42.488Z,19.70
2017-07-03T22:14:09.156Z,18.33
2017-07-03T22:16:36.584Z,23.23
2017-07-03T22:19:03.307Z,18.90
2017-07-03T22:21:29.975Z,24.20
2017-07-03T22:23:56.648Z,24.83
2017-07-03T22:26:23.320Z,18.87
2017-07-03T22:28:50.000Z,20.90
2017-07-03T22:31:16.663Z,18.05
2017-07-03T22:33:43.331Z,27.80
2017-07-03T22:36:09.996Z,20.83
2017-07-03T22:38:36.676Z,23.42
2017-07-03T22:41:03.349Z,22.52
2017-07-03T22:43:30.021Z,22.62
2017-07-03T22:45:56.695Z,22.37
2017-07-03T22:48:23.372Z,22.20
2017-07-03T22:50:50.042Z,25.58
2017-07-03T22:53:16.713Z,22.40
2017-07-03T22:55:43.412Z,22.25
2017-07-03T22:58:10.088Z,24.37
2017-07-03T23:00:36.794Z,23.40
2017-07-03T23:03:03.468Z,23.42
2017-07-03T23:05:30.163Z,22.48
2017-07-03T23:07:56.836Z,20.83
2017-07-03T23:10:23.532Z,24.83
2017-07-03T23:12:50.204Z,28.87
2017-07-03T23:15:16.899Z,30.50
2017-07-03T23:17:43.577Z,20.95
2017-07-03T23:20:10.267Z,20.58
2017-07-03T23:22:36.935Z,27.90
2017-07-03T23:25:03.627Z,28.15
2017-07-03T23:27:30.303Z,32.75
2017-07-03T23:29:56.971Z,30.77
2017-07-03T23:32:23.648Z,31.02
2017-07-03T23:34:50.321Z,32.45
2017-07-03T23:37:16.991Z,25.48
2017-07-03T23:39:43.663Z,29.65
2017-07-03T23:42:10.340Z,29.83
2017-07-03T23:44:37.017Z,22.17
2017-07-03T23:47:03.688Z,29.67
2017-07-03T23:49:30.357Z,33.78
2017-07-03T23:51:57.029Z,36.17
2017-07-03T23:54:23.699Z,28.12
2017-07-03T23:56:50.368Z,27.77
2017-07-03T23:59:17.036Z,24.40
